Rechercher aéroport 
image banner adimage banner adimage banner ad
image banner ad

KOXR - Oxnard

Situé à Oxnard, United States

ICAO - OXR, IATA -

Données fournies par Airmate  

Information générale

Coordonnées: N34°12'3" W119°12'26"
Élévation : 45 feet MSL.
Variation magnétique : 15° East
Voir autres Aéroports à California

Données opérationnelles

Special qualification required
Heure actuelle UTC:
Heure actuelle locale:
Météo
METAR: KOXR 020551Z 31005KT 10SM CLR 17/14 A3003 RMK AO2 SLP167 T01670144 10211 20167 53005 $
TAF: KOXR 012348Z 0200/0224 27018KT P6SM SKC FM020300 28008KT P6SM SKC FM020800 VRB03KT P6SM SKC FM021100 00000KT 6SM BR SCT004 FM021600 29005KT P6SM SKC FM022000 27013KT P6SM SKC
Voir NOTAMs / SUP AIP / TFR affectant cet aéroport [VIEW]
Fréquences de communication: [VIEW]

Pistes:

Identifiant RWYQFULongueur (ft)Largeur (ft)SurfaceLDA (ft)
0791°5953100ASPH5954
25271°5953100ASPH5500

Coordonnées de l'aéroport

Adresse: Oxnard United States

Autres services d'aviation

Écoles de pilotage

Ventura County Flight Training Center

Ventura County Flight Training Center

Vue satellite de KOXR